createdAt,value
2023-04-20T00:02:31.861Z,13.70
2023-04-20T00:06:34.438Z,15.00
2023-04-20T00:10:36.843Z,14.27
2023-04-20T00:14:38.936Z,16.55
2023-04-20T00:18:41.280Z,15.15
2023-04-20T00:22:43.463Z,16.13
2023-04-20T00:26:45.625Z,15.00
2023-04-20T00:30:48.432Z,14.63
2023-04-20T00:34:50.731Z,13.90
2023-04-20T00:38:52.890Z,14.25
2023-04-20T00:42:56.229Z,13.77
2023-04-20T00:46:59.587Z,13.43
2023-04-20T00:51:02.471Z,14.77
2023-04-20T00:55:06.180Z,13.82
2023-04-20T00:59:08.621Z,13.20
2023-04-20T01:03:11.088Z,12.88
2023-04-20T01:07:13.729Z,12.80
2023-04-20T01:11:17.064Z,12.25
2023-04-20T01:15:19.306Z,12.38
2023-04-20T01:19:21.910Z,12.40
2023-04-20T01:23:24.792Z,13.05
2023-04-20T01:27:26.865Z,12.75
2023-04-20T01:31:28.952Z,12.20
2023-04-20T01:35:33.440Z,13.48
2023-04-20T01:39:38.952Z,12.35
2023-04-20T01:43:41.319Z,11.43
2023-04-20T01:47:43.397Z,12.48
2023-04-20T01:51:45.502Z,12.63
2023-04-20T01:55:48.736Z,11.98
2023-04-20T01:59:50.865Z,11.60
2023-04-20T02:03:53.239Z,12.43
2023-04-20T02:07:56.458Z,11.80
2023-04-20T02:11:58.255Z,12.60
2023-04-20T02:16:00.211Z,13.15
2023-04-20T02:20:04.568Z,13.43
2023-04-20T02:24:06.972Z,13.85
2023-04-20T02:28:09.004Z,13.18
2023-04-20T02:32:13.749Z,13.80
2023-04-20T02:36:17.230Z,14.18
2023-04-20T02:40:19.335Z,14.57
2023-04-20T02:44:21.480Z,13.75
2023-04-20T02:48:24.441Z,14.48
2023-04-20T02:52:26.597Z,13.93
2023-04-20T02:56:32.320Z,12.93
2023-04-20T03:00:38.817Z,13.20
2023-04-20T03:04:43.719Z,13.27
2023-04-20T03:08:56.567Z,13.32
2023-04-20T03:13:18.938Z,14.57
2023-04-20T03:17:36.708Z,12.95
2023-04-20T03:21:39.757Z,13.27
2023-04-20T03:25:42.705Z,12.65
2023-04-20T03:29:52.614Z,13.05
2023-04-20T03:33:54.608Z,14.90
2023-04-20T03:37:56.723Z,14.23
2023-04-20T03:41:59.238Z,14.73
2023-04-20T03:46:01.245Z,14.10
2023-04-20T03:50:04.280Z,15.50
2023-04-20T03:54:07.103Z,16.10
2023-04-20T03:58:09.505Z,14.48
2023-04-20T04:02:28.266Z,13.75
2023-04-20T04:06:32.134Z,15.80
2023-04-20T04:10:33.866Z,15.18
2023-04-20T04:14:36.067Z,15.48
2023-04-20T04:18:43.565Z,15.75
2023-04-20T04:22:45.701Z,14.93
2023-04-20T04:27:07.031Z,16.00
2023-04-20T04:31:14.711Z,14.85
2023-04-20T04:35:17.904Z,14.68
2023-04-20T04:39:20.916Z,15.55
2023-04-20T04:43:35.083Z,14.82
2023-04-20T04:47:54.024Z,15.73
2023-04-20T04:51:56.262Z,15.70
2023-04-20T04:55:58.444Z,15.57
2023-04-20T05:00:00.598Z,15.05
2023-04-20T05:04:02.874Z,13.15
2023-04-20T05:08:05.534Z,14.88
2023-04-20T05:12:07.773Z,14.32
2023-04-20T05:16:09.890Z,13.90
2023-04-20T05:20:12.347Z,13.57
2023-04-20T05:24:14.661Z,13.18
2023-04-20T05:28:16.769Z,12.65
2023-04-20T05:32:18.868Z,13.43
2023-04-20T05:36:21.013Z,12.38
2023-04-20T05:40:22.988Z,11.32
2023-04-20T05:44:25.107Z,11.55
2023-04-20T05:48:29.805Z,12.10
2023-04-20T05:52:32.143Z,11.18
2023-04-20T05:56:34.235Z,11.75
2023-04-20T06:00:36.370Z,10.93
2023-04-20T06:04:38.805Z,9.80
2023-04-20T06:08:41.138Z,9.82
2023-04-20T06:12:43.129Z,9.48
2023-04-20T06:16:45.240Z,8.75
2023-04-20T06:20:47.325Z,9.43
2023-04-20T06:24:49.408Z,8.70
2023-04-20T06:28:53.051Z,8.45
2023-04-20T06:32:55.257Z,7.82
2023-04-20T06:36:57.416Z,7.85
2023-04-20T06:41:02.115Z,7.47
2023-04-20T06:45:06.399Z,6.78
2023-04-20T06:49:08.403Z,7.15
2023-04-20T06:53:10.515Z,6.70
2023-04-20T06:57:12.583Z,6.03
2023-04-20T07:01:14.631Z,7.63
2023-04-20T07:05:18.093Z,6.10
2023-04-20T07:09:20.868Z,6.38
2023-04-20T07:13:22.951Z,6.03
2023-04-20T07:17:28.106Z,5.15
2023-04-20T07:21:31.552Z,5.10
2023-04-20T07:25:33.869Z,5.38
2023-04-20T07:29:36.159Z,5.38
2023-04-20T07:33:39.590Z,5.35
2023-04-20T07:37:41.697Z,5.63
2023-04-20T07:41:43.959Z,4.97
2023-04-20T07:45:46.109Z,6.10
2023-04-20T07:49:48.202Z,6.05
2023-04-20T07:53:50.294Z,4.63
2023-04-20T07:57:52.370Z,4.18
2023-04-20T08:02:02.563Z,6.20
2023-04-20T08:06:04.815Z,3.85
2023-04-20T08:10:07.819Z,4.50
2023-04-20T08:14:09.786Z,4.45
2023-04-20T08:18:11.905Z,4.20
2023-04-20T08:22:14.198Z,4.63
2023-04-20T08:26:17.249Z,5.20
2023-04-20T08:30:19.200Z,4.13
2023-04-20T08:34:21.746Z,4.80
2023-04-20T08:38:33.454Z,3.72
2023-04-20T08:42:36.378Z,5.30
2023-04-20T08:46:41.233Z,4.57
2023-04-20T08:50:43.479Z,3.78
2023-04-20T08:54:55.954Z,4.20
2023-04-20T08:58:58.905Z,4.10
2023-04-20T09:03:01.982Z,3.72
2023-04-20T09:07:04.453Z,3.95
2023-04-20T09:11:07.278Z,3.85
2023-04-20T09:15:10.952Z,4.07
2023-04-20T09:19:14.058Z,3.90
2023-04-20T09:23:17.150Z,3.28
2023-04-20T09:27:19.655Z,3.35
2023-04-20T09:31:22.802Z,3.30
2023-04-20T09:35:25.020Z,3.88
2023-04-20T09:39:27.138Z,2.70
2023-04-20T09:43:30.638Z,3.10
2023-04-20T09:47:36.800Z,3.47
2023-04-20T09:51:47.016Z,2.75
2023-04-20T09:55:51.252Z,3.47
2023-04-20T09:59:54.493Z,2.83
2023-04-20T10:03:57.580Z,2.70
2023-04-20T10:08:01.276Z,2.80
2023-04-20T10:12:08.105Z,2.70
2023-04-20T10:16:18.321Z,2.72
2023-04-20T10:20:26.474Z,2.40
2023-04-20T10:24:32.195Z,2.63
2023-04-20T10:28:41.863Z,2.70
2023-04-20T10:32:43.944Z,2.70
2023-04-20T10:36:46.176Z,3.67
2023-04-20T10:40:48.317Z,2.63
2023-04-20T10:44:51.889Z,2.88
2023-04-20T10:48:58.065Z,2.83
2023-04-20T10:53:00.578Z,2.42
2023-04-20T10:57:03.242Z,3.15
2023-04-20T11:01:05.893Z,2.55
2023-04-20T11:05:12.463Z,3.38
2023-04-20T11:09:23.727Z,2.50
2023-04-20T11:13:29.148Z,4.82
2023-04-20T11:17:33.580Z,3.38
2023-04-20T11:21:41.513Z,2.78
2023-04-20T11:25:53.743Z,2.57
2023-04-20T11:29:58.247Z,3.38
2023-04-20T11:34:00.596Z,2.67
2023-04-20T11:38:02.941Z,3.30
2023-04-20T11:42:05.812Z,3.00
2023-04-20T11:46:18.719Z,3.42
2023-04-20T11:50:21.961Z,2.70
2023-04-20T11:54:24.489Z,3.42
2023-04-20T11:58:27.152Z,3.92
2023-04-20T12:02:29.387Z,3.00
2023-04-20T12:06:34.462Z,3.30
2023-04-20T12:10:36.454Z,3.55
2023-04-20T12:14:38.574Z,3.22
2023-04-20T12:18:41.375Z,3.50
2023-04-20T12:22:43.453Z,3.55
2023-04-20T12:26:45.966Z,3.45
2023-04-20T12:30:48.057Z,3.30
2023-04-20T12:34:50.085Z,3.00
2023-04-20T12:38:52.570Z,3.50
2023-04-20T12:42:54.632Z,3.15
2023-04-20T12:46:56.691Z,3.28
2023-04-20T12:50:58.879Z,3.45
2023-04-20T12:55:01.763Z,2.80
2023-04-20T12:59:03.590Z,3.55
2023-04-20T13:03:05.810Z,4.13
2023-04-20T13:07:08.284Z,3.70
2023-04-20T13:11:15.534Z,3.63
2023-04-20T13:15:31.740Z,4.25
2023-04-20T13:19:40.084Z,3.85
2023-04-20T13:23:42.198Z,3.22
2023-04-20T13:27:44.532Z,3.00
2023-04-20T13:31:48.401Z,3.38
2023-04-20T13:35:50.735Z,3.33
2023-04-20T13:39:52.739Z,3.70
2023-04-20T13:43:57.974Z,3.17
2023-04-20T13:48:00.073Z,3.70
2023-04-20T13:52:02.646Z,4.15
2023-04-20T13:56:05.213Z,3.78
2023-04-20T14:00:08.348Z,4.15
2023-04-20T14:04:10.832Z,3.78
2023-04-20T14:08:13.825Z,3.53
2023-04-20T14:12:16.150Z,3.22
2023-04-20T14:16:18.461Z,3.53
2023-04-20T14:20:20.619Z,3.00
2023-04-20T14:24:22.884Z,3.97
2023-04-20T14:28:24.974Z,3.97
2023-04-20T14:32:27.425Z,4.05
2023-04-20T14:36:30.601Z,3.28
2023-04-20T14:40:32.791Z,3.95
2023-04-20T14:44:34.805Z,4.25
2023-04-20T14:48:38.187Z,3.55
2023-04-20T14:52:40.225Z,3.92
2023-04-20T14:56:42.340Z,3.70
2023-04-20T15:00:44.969Z,3.78
2023-04-20T15:04:47.335Z,4.05
2023-04-20T15:08:49.711Z,3.58
2023-04-20T15:12:51.986Z,4.65
2023-04-20T15:16:54.289Z,4.80
2023-04-20T15:20:56.440Z,3.88
2023-04-20T15:24:58.400Z,4.13
2023-04-20T15:29:00.546Z,4.30
2023-04-20T15:33:04.396Z,4.15
2023-04-20T15:37:07.766Z,4.72
2023-04-20T15:41:09.819Z,3.88
2023-04-20T15:45:11.943Z,4.72
2023-04-20T15:49:13.977Z,5.25
2023-04-20T15:53:16.037Z,4.95
2023-04-20T15:57:18.033Z,4.55
2023-04-20T16:01:20.591Z,5.07
2023-04-20T16:05:22.846Z,5.18
2023-04-20T16:09:25.075Z,4.72
2023-04-20T16:13:27.099Z,5.22
2023-04-20T16:17:29.381Z,4.68
2023-04-20T16:21:31.885Z,5.53
2023-04-20T16:25:34.485Z,5.30
2023-04-20T16:29:36.533Z,5.18
2023-04-20T16:33:38.659Z,6.03
2023-04-20T16:37:40.687Z,5.50
2023-04-20T16:41:42.767Z,5.90
2023-04-20T16:45:44.757Z,6.18
2023-04-20T16:49:47.349Z,6.38
2023-04-20T16:53:49.552Z,7.28
2023-04-20T16:57:51.735Z,6.72
2023-04-20T17:01:54.191Z,5.88
2023-04-20T17:05:56.273Z,6.28
2023-04-20T17:09:58.508Z,6.13
2023-04-20T17:14:00.502Z,6.43
2023-04-20T17:18:02.574Z,6.45
2023-04-20T17:22:04.875Z,5.30
2023-04-20T17:26:06.989Z,7.95
2023-04-20T17:30:09.644Z,6.93
2023-04-20T17:34:11.663Z,10.68
2023-04-20T17:38:13.809Z,8.25
2023-04-20T17:42:16.943Z,8.15
2023-04-20T17:46:19.075Z,9.00
2023-04-20T17:50:22.567Z,8.15
2023-04-20T17:54:25.740Z,7.75
2023-04-20T17:58:27.452Z,7.82
2023-04-20T18:02:29.558Z,7.13
2023-04-20T18:06:33.236Z,6.65
2023-04-20T18:10:35.402Z,7.10
2023-04-20T18:14:39.152Z,8.10
2023-04-20T18:18:41.204Z,8.60
2023-04-20T18:22:43.328Z,7.72
2023-04-20T18:26:46.025Z,7.90
2023-04-20T18:30:48.420Z,7.38
2023-04-20T18:34:50.682Z,7.63
2023-04-20T18:38:54.054Z,8.27
2023-04-20T18:42:57.312Z,8.85
2023-04-20T18:46:59.813Z,8.45
2023-04-20T18:51:02.073Z,8.20
2023-04-20T18:55:04.313Z,7.50
2023-04-20T18:59:08.480Z,7.78
2023-04-20T19:03:11.004Z,8.90
2023-04-20T19:07:13.232Z,7.97
2023-04-20T19:11:15.534Z,7.65
2023-04-20T19:15:22.551Z,8.80
2023-04-20T19:19:24.561Z,8.15
2023-04-20T19:23:26.640Z,9.15
2023-04-20T19:27:28.698Z,8.88
2023-04-20T19:31:36.770Z,8.43
2023-04-20T19:35:39.026Z,9.20
2023-04-20T19:39:41.053Z,10.48
2023-04-20T19:43:43.046Z,9.48
2023-04-20T19:47:45.536Z,9.52
2023-04-20T19:51:47.718Z,10.13
2023-04-20T19:55:49.881Z,11.15
2023-04-20T19:59:52.189Z,11.00
2023-04-20T20:03:54.516Z,11.52
2023-04-20T20:07:56.661Z,12.82
2023-04-20T20:12:01.094Z,14.20
2023-04-20T20:16:04.056Z,16.17
2023-04-20T20:20:07.047Z,16.27
2023-04-20T20:24:09.215Z,15.90
2023-04-20T20:28:11.437Z,15.77
2023-04-20T20:32:13.457Z,15.20
2023-04-20T20:36:17.729Z,15.57
2023-04-20T20:40:20.114Z,16.52
2023-04-20T20:44:22.192Z,16.48
2023-04-20T20:48:24.364Z,16.20
2023-04-20T20:52:26.387Z,18.00
2023-04-20T20:56:28.446Z,18.15
2023-04-20T21:00:30.849Z,16.88
2023-04-20T21:04:33.272Z,16.20
2023-04-20T21:08:35.325Z,18.08
2023-04-20T21:12:37.536Z,17.52
2023-04-20T21:16:39.709Z,17.40
2023-04-20T21:20:41.851Z,17.40
2023-04-20T21:24:44.033Z,15.95
2023-04-20T21:28:46.019Z,14.77
2023-04-20T21:32:48.127Z,16.05
2023-04-20T21:36:50.252Z,14.80
2023-04-20T21:40:52.485Z,14.43
2023-04-20T21:44:54.519Z,13.70
2023-04-20T21:48:56.559Z,14.73
2023-04-20T21:52:58.571Z,13.65
2023-04-20T21:57:00.623Z,13.27
2023-04-20T22:01:03.005Z,12.20
2023-04-20T22:05:05.544Z,12.05
2023-04-20T22:09:07.989Z,12.68
2023-04-20T22:13:10.100Z,12.20
2023-04-20T22:17:14.388Z,12.73
2023-04-20T22:21:16.536Z,11.90
2023-04-20T22:25:18.642Z,11.65
2023-04-20T22:29:21.018Z,11.50
2023-04-20T22:33:23.206Z,11.90
2023-04-20T22:37:25.933Z,11.95
2023-04-20T22:41:27.874Z,11.32
2023-04-20T22:45:29.893Z,11.55
2023-04-20T22:49:32.012Z,11.75
2023-04-20T22:53:34.192Z,11.98
2023-04-20T22:57:36.590Z,10.90
2023-04-20T23:01:38.678Z,11.45
2023-04-20T23:05:44.385Z,10.40
2023-04-20T23:09:46.440Z,11.48
2023-04-20T23:13:48.494Z,11.88
2023-04-20T23:17:50.949Z,11.15
2023-04-20T23:21:52.991Z,11.57
2023-04-20T23:25:55.015Z,11.60
2023-04-20T23:29:56.979Z,10.90
2023-04-20T23:33:59.367Z,10.70
2023-04-20T23:38:01.415Z,10.90
2023-04-20T23:42:04.936Z,11.23
2023-04-20T23:46:07.758Z,10.07
2023-04-20T23:50:10.025Z,10.98
2023-04-20T23:54:12.008Z,12.48
2023-04-20T23:58:14.076Z,10.85
